Time;durP1;ratioP1;P1;durP2;ratioP2;P2;SDS_P1;SDS_P2;PMS_P1;PMS_P2;Temp;Humidity;BMP_temperature;BMP_pressure;BME280_temperature;BME280_humidity;BME280_pressure;Samples;Min_cycle;Max_cycle;Signal;HPM_P1;HPM_P2
2024/03/25 00:01:06;;;;;;;3.53;3.20;;;10.00;99.90;;;;;;4976419;28;20226;-73
2024/03/25 00:03:32;;;;;;;3.60;3.40;;;10.00;99.90;;;;;;4976524;28;20810;-73
2024/03/25 00:06:00;;;;;;;3.30;3.00;;;10.00;99.90;;;;;;4976043;28;20220;-73
2024/03/25 00:08:26;;;;;;;4.05;3.45;;;9.90;99.90;;;;;;4976359;28;20482;-73
2024/03/25 00:10:55;;;;;;;3.30;3.07;;;9.90;99.90;;;;;;4976363;28;20677;-73
2024/03/25 00:13:21;;;;;;;3.53;3.20;;;10.00;99.90;;;;;;4975846;28;20529;-73
2024/03/25 00:15:48;;;;;;;3.60;3.30;;;9.90;99.90;;;;;;4976398;28;20251;-73
2024/03/25 00:18:14;;;;;;;3.50;3.20;;;9.90;99.90;;;;;;4975417;28;20505;-73
2024/03/25 00:20:40;;;;;;;3.23;3.00;;;9.90;99.90;;;;;;4994555;28;20222;-73
2024/03/25 00:23:08;;;;;;;3.40;3.10;;;9.90;99.90;;;;;;5014448;28;20473;-73
2024/03/25 00:25:35;;;;;;;3.28;2.97;;;9.90;99.90;;;;;;5015256;28;20222;-73
2024/03/25 00:28:01;;;;;;;3.03;2.83;;;9.90;99.90;;;;;;4989269;28;20242;-73
2024/03/25 00:30:28;;;;;;;3.90;3.60;;;9.90;99.90;;;;;;4975953;28;20223;-73
2024/03/25 00:32:53;;;;;;;3.30;3.00;;;9.90;99.90;;;;;;4975873;28;20972;-73
2024/03/25 00:35:20;;;;;;;4.03;3.67;;;9.90;99.90;;;;;;4975636;28;20221;-73
2024/03/25 00:37:46;;;;;;;3.72;3.40;;;9.90;99.90;;;;;;4975901;28;20984;-73
2024/03/25 00:40:14;;;;;;;3.00;2.80;;;9.90;99.90;;;;;;4975398;28;20226;-73
2024/03/25 00:42:40;;;;;;;4.43;3.28;;;9.80;99.90;;;;;;4976089;28;20470;-73
2024/03/25 00:45:10;;;;;;;3.20;2.90;;;9.80;99.90;;;;;;4975330;28;20219;-72
2024/03/25 00:47:36;;;;;;;4.90;4.00;;;9.80;99.90;;;;;;4975801;28;20467;-72
2024/03/25 00:50:03;;;;;;;4.03;3.53;;;9.80;99.90;;;;;;4975343;28;20285;-72
2024/03/25 00:52:30;;;;;;;3.30;3.10;;;9.80;99.90;;;;;;4975604;28;20497;-72
2024/03/25 00:54:57;;;;;;;4.00;3.70;;;9.80;99.90;;;;;;4975824;28;20251;-73
2024/03/25 00:57:24;;;;;;;3.53;3.22;;;9.80;99.90;;;;;;4974931;28;20459;-73
2024/03/25 00:59:51;;;;;;;4.05;3.65;;;9.90;99.90;;;;;;4975417;28;20227;-73
2024/03/25 01:02:17;;;;;;;4.25;3.85;;;9.90;99.90;;;;;;4975270;28;20231;-73
2024/03/25 01:04:44;;;;;;;5.27;4.67;;;9.90;99.90;;;;;;4975204;28;20227;-73
2024/03/25 01:07:10;;;;;;;4.43;4.07;;;9.90;99.90;;;;;;4974660;28;20479;-73
2024/03/25 01:09:37;;;;;;;4.50;4.10;;;9.90;99.90;;;;;;4975464;28;20220;-73
2024/03/25 01:12:03;;;;;;;5.22;4.72;;;9.90;99.90;;;;;;4974832;28;20478;-74
2024/03/25 01:14:31;;;;;;;3.95;3.55;;;9.90;99.90;;;;;;4975255;28;20601;-73
2024/03/25 01:16:57;;;;;;;4.70;4.30;;;9.90;99.90;;;;;;4975158;28;20227;-73
2024/03/25 01:19:24;;;;;;;5.07;4.67;;;9.90;99.90;;;;;;4974559;28;20225;-73
2024/03/25 01:21:50;;;;;;;5.65;5.00;;;9.90;99.90;;;;;;5012207;28;20481;-73
2024/03/25 01:24:17;;;;;;;5.10;4.70;;;9.90;99.90;;;;;;5013577;28;20226;-72
2024/03/25 01:26:44;;;;;;;5.30;4.45;;;9.90;99.90;;;;;;5011502;28;20473;-72
2024/03/25 01:29:11;;;;;;;6.25;4.80;;;9.90;99.90;;;;;;4993792;28;20254;-72
2024/03/25 01:31:38;;;;;;;5.22;4.53;;;9.90;99.90;;;;;;4993739;28;20222;-73
2024/03/25 01:34:05;;;;;;;4.65;4.25;;;9.90;99.90;;;;;;4993790;28;20230;-72
2024/03/25 01:36:31;;;;;;;5.97;5.35;;;9.90;99.90;;;;;;4994087;28;20238;-73
2024/03/25 01:38:58;;;;;;;4.73;4.33;;;9.90;99.90;;;;;;4994207;28;20234;-73
2024/03/25 01:41:24;;;;;;;5.38;4.85;;;9.90;99.90;;;;;;4993642;28;20458;-73
2024/03/25 01:43:51;;;;;;;5.37;4.70;;;9.90;99.90;;;;;;4994222;28;20218;-73
2024/03/25 01:46:18;;;;;;;5.55;5.15;;;9.90;99.90;;;;;;4993352;28;20473;-73
2024/03/25 01:48:47;;;;;;;5.75;5.25;;;9.90;99.90;;;;;;4994007;28;20245;-75
2024/03/25 01:51:16;;;;;;;8.50;5.35;;;10.00;99.90;;;;;;4993670;28;20230;-73
2024/03/25 01:53:44;;;;;;;5.00;4.60;;;10.00;99.90;;;;;;4993914;28;20549;-74
2024/03/25 01:56:12;;;;;;;5.63;5.07;;;10.00;99.90;;;;;;4993417;28;20553;-74
2024/03/25 01:58:39;;;;;;;6.05;5.35;;;10.00;99.90;;;;;;4994033;28;20226;-73
2024/03/25 02:01:06;;;;;;;4.53;4.13;;;10.00;99.90;;;;;;4993235;28;20233;-73
2024/03/25 02:03:33;;;;;;;4.15;3.50;;;10.00;99.90;;;;;;4993612;28;20293;-73
2024/03/25 02:06:04;;;;;;;5.07;4.60;;;10.00;99.90;;;;;;4993850;28;20223;-73
2024/03/25 02:08:32;;;;;;;5.07;2.55;;;9.90;99.90;;;;;;4993365;28;20254;-73
2024/03/25 02:10:59;;;;;;;3.13;2.72;;;9.90;99.90;;;;;;4993908;28;20230;-73
2024/03/25 02:13:26;;;;;;;3.22;2.92;;;9.80;99.90;;;;;;4993377;28;20234;-73
2024/03/25 02:15:54;;;;;;;2.35;1.80;;;9.80;99.90;;;;;;4993847;28;20221;-73
2024/03/25 02:18:21;;;;;;;2.80;2.40;;;9.70;99.90;;;;;;4993375;28;20234;-72
2024/03/25 02:20:48;;;;;;;2.17;2.00;;;9.70;99.90;;;;;;5004095;28;20557;-72
2024/03/25 02:23:17;;;;;;;1.80;1.70;;;9.70;99.90;;;;;;5012940;28;20213;-73
2024/03/25 02:25:43;;;;;;;2.22;2.03;;;9.70;99.90;;;;;;5013366;28;20233;-74
2024/03/25 02:28:12;;;;;;;2.35;2.05;;;9.60;99.90;;;;;;4998972;28;20226;-74
2024/03/25 02:30:38;;;;;;;2.20;1.80;;;9.70;99.90;;;;;;4993607;28;20221;-71
2024/03/25 02:33:05;;;;;;;1.77;1.67;;;9.60;99.90;;;;;;4993764;28;20301;-73
2024/03/25 02:35:32;;;;;;;2.30;2.10;;;9.70;99.90;;;;;;4993187;28;20234;-73
2024/03/25 02:37:59;;;;;;;3.08;1.98;;;9.60;99.90;;;;;;4993450;28;20680;-73
2024/03/25 02:40:26;;;;;;;2.45;2.25;;;9.60;99.90;;;;;;4993350;28;20222;-73
2024/03/25 02:42:53;;;;;;;5.75;4.80;;;9.60;99.90;;;;;;4995219;28;20210;-74
2024/03/25 02:45:20;;;;;;;2.50;2.30;;;9.60;99.90;;;;;;4996723;28;20227;-73
2024/03/25 02:47:48;;;;;;;9.88;6.32;;;9.60;99.90;;;;;;4997611;28;20736;-73
2024/03/25 02:50:13;;;;;;;2.22;2.05;;;9.50;99.90;;;;;;4996678;28;20234;-74
2024/03/25 02:52:40;;;;;;;2.33;2.10;;;9.50;99.90;;;;;;4997248;28;20218;-74
2024/03/25 02:55:07;;;;;;;1.80;1.70;;;9.50;99.90;;;;;;4997171;28;20993;-74
2024/03/25 02:57:34;;;;;;;2.35;2.20;;;9.50;99.90;;;;;;4996620;28;20227;-73
2024/03/25 03:00:00;;;;;;;2.10;2.00;;;9.40;99.90;;;;;;4997008;28;20246;-75
2024/03/25 03:02:28;;;;;;;1.77;1.67;;;9.40;99.90;;;;;;4996096;28;20247;-74
2024/03/25 03:04:54;;;;;;;2.10;1.90;;;9.40;99.90;;;;;;4996301;28;20474;-73
2024/03/25 03:07:21;;;;;;;2.67;2.20;;;9.40;99.90;;;;;;4996710;28;20237;-73
2024/03/25 03:09:47;;;;;;;2.95;2.50;;;9.40;99.90;;;;;;4996704;28;20473;-73
2024/03/25 03:12:14;;;;;;;2.87;2.63;;;9.40;99.90;;;;;;4996537;28;20231;-74
2024/03/25 03:14:39;;;;;;;3.28;2.33;;;9.40;99.90;;;;;;4996853;28;20466;-75
2024/03/25 03:17:06;;;;;;;2.87;2.60;;;9.40;99.90;;;;;;4996766;28;20236;-74
2024/03/25 03:19:34;;;;;;;3.00;2.80;;;9.40;99.90;;;;;;4996053;28;20457;-74
2024/03/25 03:22:01;;;;;;;3.70;3.38;;;9.40;99.90;;;;;;4996954;28;20222;-74
2024/03/25 03:24:27;;;;;;;3.90;3.25;;;9.40;99.90;;;;;;4995509;28;20223;-73
2024/03/25 03:27:03;;;;;;;4.63;3.70;;;9.40;99.90;;;;;;4996694;28;20314;-74
2024/03/25 03:29:29;;;;;;;4.60;3.50;;;9.40;99.90;;;;;;4996411;28;20230;-73
2024/03/25 03:31:56;;;;;;;4.25;3.53;;;9.50;99.90;;;;;;4996574;28;20234;-72
2024/03/25 03:34:22;;;;;;;4.20;3.80;;;9.50;99.90;;;;;;4995763;28;20238;-73
2024/03/25 03:36:50;;;;;;;5.77;3.47;;;9.50;99.90;;;;;;4996709;28;20226;-74
2024/03/25 03:39:17;;;;;;;4.05;3.38;;;9.50;99.90;;;;;;4996230;28;20470;-74
2024/03/25 03:41:44;;;;;;;4.45;3.78;;;9.50;99.90;;;;;;4996249;28;20222;-74
2024/03/25 03:44:10;;;;;;;6.10;4.18;;;9.40;99.90;;;;;;4996513;28;20226;-73
2024/03/25 03:46:37;;;;;;;5.10;4.00;;;9.40;99.90;;;;;;4995696;28;20667;-74
2024/03/25 03:49:03;;;;;;;4.25;3.40;;;9.40;99.90;;;;;;4996360;28;20478;-74
2024/03/25 03:51:30;;;;;;;4.07;3.67;;;9.40;99.90;;;;;;4995772;28;20603;-73
2024/03/25 03:53:57;;;;;;;4.47;3.75;;;9.40;99.90;;;;;;4995517;28;20688;-73
2024/03/25 03:56:24;;;;;;;3.40;2.70;;;9.40;99.90;;;;;;4995851;28;20230;-73
2024/03/25 03:58:50;;;;;;;5.90;3.70;;;9.40;99.90;;;;;;4995923;28;20230;-73
2024/03/25 04:01:17;;;;;;;3.50;3.20;;;9.40;99.90;;;;;;4995400;28;20229;-73
2024/03/25 04:03:43;;;;;;;3.60;2.83;;;9.40;99.90;;;;;;4996090;28;20979;-73
2024/03/25 04:06:11;;;;;;;3.73;3.10;;;9.40;99.90;;;;;;4994023;28;20242;-75
2024/03/25 04:08:38;;;;;;;4.05;2.83;;;9.40;99.90;;;;;;4995709;28;20846;-73
2024/03/25 04:11:07;;;;;;;3.20;2.90;;;9.40;99.90;;;;;;4995881;28;20676;-74
2024/03/25 04:13:33;;;;;;;3.63;3.33;;;9.40;99.90;;;;;;4995188;28;20234;-74
2024/03/25 04:16:05;;;;;;;3.60;3.30;;;9.40;99.90;;;;;;4995806;28;20214;-74
2024/03/25 04:18:32;;;;;;;4.00;2.90;;;9.40;99.90;;;;;;4995458;28;20231;-74
2024/03/25 04:20:59;;;;;;;2.63;2.38;;;9.40;99.90;;;;;;4995722;28;20692;-73
2024/03/25 04:23:26;;;;;;;3.88;3.00;;;9.30;99.90;;;;;;4995173;28;20227;-73
2024/03/25 04:25:53;;;;;;;3.05;2.67;;;9.40;99.90;;;;;;4996327;28;20309;-74
2024/03/25 04:28:22;;;;;;;3.33;3.03;;;9.40;99.90;;;;;;4996012;28;20238;-72
2024/03/25 04:30:55;;;;;;;4.45;3.22;;;9.40;99.90;;;;;;4995800;28;20218;-73
2024/03/25 04:33:22;;;;;;;2.85;2.65;;;9.40;99.90;;;;;;4996157;28;20223;-72
2024/03/25 04:35:48;;;;;;;2.70;2.50;;;9.40;99.90;;;;;;4995785;28;20229;-74
